Montandon, PA

05:07 AM EDT del 27 Aprile 2015 (GMT -0400)
Muir Army Air Field | | Change Station
CLOSE
Current Station
Aeroporto
Location: Fort Indiantown Gap,
Altitudine: 489 ft
Stazioni meteo nelle vicinanze

Alt. 489 ft 40.43 °N, 76.57 °W | Updated 9 minutes ago

Coperto
Coperto
48 °F
Sembra 48 °F
N
5
Vento Variabile Vento da Ovest

Oggi
Massima -- | Minima -- °F
--% Possibilità di precip.
Ieri
Massima -- | Minima -- °F
Precip. -- in
6:11 AM 7:59 PM
Gobba a ponente, 63% visible
Pressione 29.74 in
Visibilità 10.0 miglia
Nuvole Coperto 7500 ft
Punto di rugiada 30 °F
Umidità 49%
Piovosità 0.00 in
Spessore del manto nevoso Non disponibile.
Raggi UV 0 fuori da 12
Polline 9.70 fuori da 12
Qualità dell'aria Non disponibile.
Flu Activity Sporadic
METAR KMUI 270858Z AUTO 27004KT 10SM OVC075 09/M01 A2973 RMK AO2 SLP070 T00901012 55005 $

More Conditions Fewer Conditions

Pressione 29.74 in
Visibilità 10.0 miglia
Nuvole Coperto 7500 ft
Punto di rugiada 30 °F
Umidità 49%
Piovosità 0.00 in
Spessore del manto nevoso Non disponibile.
Raggi UV 0 fuori da 12
Polline 9.70 fuori da 12
Qualità dell'aria Non disponibile.
Flu Activity Sporadic
METAR KMUI 270858Z AUTO 27004KT 10SM OVC075 09/M01 A2973 RMK AO2 SLP070 T00901012 55005 $

More Conditions Fewer Conditions

10-Day Weather Forecast

Almanac

Astronomia

Apr. 27, 2015 Alba Tramonto
Ora attuale
Crepuscolo civile
Crepuscolo nautico
Crepuscolo astronomico
Luna
Estensione della luce visibile
Lunghezza del giorno
Tomorrow will be .
, % of the Moon is Illuminated

Gli estremi di oggi

State Highs State Lows

Community

WunderPhotos

Upload Photos

1,817,277 foto caricate!

WunderBlogs® & News

Nearby

Qualità dell'aria

  Qualità dell'aria Indice AQ Inquinante
Not available.

Profondità neve

Stazione Profondità Altitudine

Attività sismica

Città  Distanza Mag. Data & Ora
Minimo Magnitudo Mostrato è 2.5.

Temperature delle acque costiere

Località Temperatura

Stations

Stazioni meteo nelle vicinanze

Ubicazione della stazione Temp. Raffreddamento del vento Punto di rugiada Umidità Vento Precip. Alt. Aggiornato Tipo